X  Chiuso Dati meteorologici dell'aviazione (METAR)     LFLC Clermont-Ferrand Auvergne Airport
Temperatura
15°C Temperatura
10°C Punto di rugiada
72% Umidità



Vento
26 KM/O
16 MPH
7 M/S
14 KTS



250°
OSO
Condizioni attuali

Nuvole per lo più sparse Nuvole per lo più sparse
Pressione 1004.92 (hPa) - 29.68 (inHg)
Visibilità 6.2 (miglio) - 10 (km)
Aeroporto
Codice-Aeroporto LFLC

Posizione: Clermont-Ferrand Auvergne Airport
Distanza: 100 (km)

Metar:
LFLC 272330Z AUTO 25014KT 9999 SCT030 BKN043 BKN088 15/10 Q1005 NOSIG

Ore: 28-09-2022 01:30 CEST